sensor_id;sensor_type;location;lat;lon;timestamp;pressure;altitude;pressure_sealevel;temperature;humidity
59789;BME280;47353;51.614;5.530;2023-04-02T00:08:18;100995.81;;;6.53;100.00
59789;BME280;47353;51.614;5.530;2023-04-02T00:10:57;101006.56;;;6.55;100.00
59789;BME280;47353;51.614;5.530;2023-04-02T00:15:59;101016.38;;;6.51;100.00
59789;BME280;47353;51.614;5.530;2023-04-02T00:18:27;101017.97;;;6.47;100.00
59789;BME280;47353;51.614;5.530;2023-04-02T00:21:09;101021.22;;;6.44;100.00
59789;BME280;47353;51.614;5.530;2023-04-02T00:23:38;101023.09;;;6.43;100.00
59789;BME280;47353;51.614;5.530;2023-04-02T00:26:51;101029.69;;;6.42;100.00
59789;BME280;47353;51.614;5.530;2023-04-02T00:28:51;101036.28;;;6.41;100.00
59789;BME280;47353;51.614;5.530;2023-04-02T00:31:18;101027.19;;;6.41;100.00
59789;BME280;47353;51.614;5.530;2023-04-02T00:33:44;101045.16;;;6.32;100.00
59789;BME280;47353;51.614;5.530;2023-04-02T00:36:10;101048.72;;;6.32;100.00
59789;BME280;47353;51.614;5.530;2023-04-02T00:38:36;101044.91;;;6.33;100.00
59789;BME280;47353;51.614;5.530;2023-04-02T00:41:05;101033.81;;;6.28;100.00
59789;BME280;47353;51.614;5.530;2023-04-02T00:43:37;101043.41;;;6.26;100.00
59789;BME280;47353;51.614;5.530;2023-04-02T00:46:09;101059.41;;;6.29;100.00
59789;BME280;47353;51.614;5.530;2023-04-02T00:48:47;101058.19;;;6.25;100.00
59789;BME280;47353;51.614;5.530;2023-04-02T00:51:52;101064.41;;;6.32;100.00
59789;BME280;47353;51.614;5.530;2023-04-02T00:54:19;101061.19;;;6.23;100.00
59789;BME280;47353;51.614;5.530;2023-04-02T00:56:48;101076.03;;;6.22;100.00
59789;BME280;47353;51.614;5.530;2023-04-02T00:59:19;101079.63;;;6.23;100.00
59789;BME280;47353;51.614;5.530;2023-04-02T01:01:56;101078.16;;;6.20;100.00
59789;BME280;47353;51.614;5.530;2023-04-02T01:04:33;101089.75;;;6.22;100.00
59789;BME280;47353;51.614;5.530;2023-04-02T01:07:05;101085.59;;;6.08;100.00
59789;BME280;47353;51.614;5.530;2023-04-02T01:15:10;101104.97;;;6.13;100.00
59789;BME280;47353;51.614;5.530;2023-04-02T01:18:18;101108.88;;;6.17;100.00
59789;BME280;47353;51.614;5.530;2023-04-02T01:21:05;101120.13;;;6.16;100.00
59789;BME280;47353;51.614;5.530;2023-04-02T01:31:22;101129.00;;;5.95;100.00
59789;BME280;47353;51.614;5.530;2023-04-02T01:33:48;101126.72;;;5.92;100.00
59789;BME280;47353;51.614;5.530;2023-04-02T01:44:41;101157.28;;;5.84;100.00
59789;BME280;47353;51.614;5.530;2023-04-02T01:47:13;101163.03;;;5.82;100.00
59789;BME280;47353;51.614;5.530;2023-04-02T01:49:41;101164.31;;;5.80;100.00
59789;BME280;47353;51.614;5.530;2023-04-02T01:52:08;101168.97;;;5.79;100.00
59789;BME280;47353;51.614;5.530;2023-04-02T01:54:38;101171.09;;;5.77;100.00
59789;BME280;47353;51.614;5.530;2023-04-02T01:57:06;101175.16;;;5.75;100.00
59789;BME280;47353;51.614;5.530;2023-04-02T01:59:31;101181.72;;;5.74;100.00
59789;BME280;47353;51.614;5.530;2023-04-02T02:02:04;101188.91;;;5.75;100.00
59789;BME280;47353;51.614;5.530;2023-04-02T02:04:31;101189.13;;;5.73;100.00
59789;BME280;47353;51.614;5.530;2023-04-02T02:06:58;101190.66;;;5.69;100.00
59789;BME280;47353;51.614;5.530;2023-04-02T02:09:28;101201.31;;;5.77;100.00
59789;BME280;47353;51.614;5.530;2023-04-02T02:11:56;101202.13;;;5.66;100.00
59789;BME280;47353;51.614;5.530;2023-04-02T02:14:25;101210.38;;;5.66;100.00
59789;BME280;47353;51.614;5.530;2023-04-02T02:16:53;101212.03;;;5.56;100.00
59789;BME280;47353;51.614;5.530;2023-04-02T02:24:34;101217.97;;;5.53;100.00
59789;BME280;47353;51.614;5.530;2023-04-02T02:29:45;101237.91;;;5.48;100.00
59789;BME280;47353;51.614;5.530;2023-04-02T02:32:16;101236.00;;;5.49;100.00
59789;BME280;47353;51.614;5.530;2023-04-02T02:34:48;101239.56;;;5.49;100.00
59789;BME280;47353;51.614;5.530;2023-04-02T02:37:23;101247.94;;;5.54;100.00
59789;BME280;47353;51.614;5.530;2023-04-02T02:39:52;101248.03;;;5.48;100.00
59789;BME280;47353;51.614;5.530;2023-04-02T02:42:47;101252.56;;;5.42;100.00
59789;BME280;47353;51.614;5.530;2023-04-02T02:45:21;101272.81;;;5.59;100.00
59789;BME280;47353;51.614;5.530;2023-04-02T02:47:50;101282.28;;;5.45;100.00
59789;BME280;47353;51.614;5.530;2023-04-02T02:50:22;101277.03;;;5.44;100.00
59789;BME280;47353;51.614;5.530;2023-04-02T02:52:53;101285.13;;;5.39;100.00
59789;BME280;47353;51.614;5.530;2023-04-02T02:55:23;101284.16;;;5.33;100.00
59789;BME280;47353;51.614;5.530;2023-04-02T02:58:05;101281.56;;;5.38;100.00
59789;BME280;47353;51.614;5.530;2023-04-02T03:00:32;101304.34;;;5.39;100.00
59789;BME280;47353;51.614;5.530;2023-04-02T03:03:01;101304.56;;;5.37;100.00
59789;BME280;47353;51.614;5.530;2023-04-02T03:05:29;101304.81;;;5.36;100.00
59789;BME280;47353;51.614;5.530;2023-04-02T03:07:56;101309.69;;;5.34;100.00
59789;BME280;47353;51.614;5.530;2023-04-02T03:10:49;101317.00;;;5.40;100.00
59789;BME280;47353;51.614;5.530;2023-04-02T03:13:29;101313.72;;;5.31;100.00
59789;BME280;47353;51.614;5.530;2023-04-02T03:16:15;101316.47;;;5.31;100.00
59789;BME280;47353;51.614;5.530;2023-04-02T03:23:59;101329.75;;;5.34;100.00
59789;BME280;47353;51.614;5.530;2023-04-02T03:26:59;101342.72;;;5.27;100.00
59789;BME280;47353;51.614;5.530;2023-04-02T03:29:28;101342.19;;;5.18;100.00
59789;BME280;47353;51.614;5.530;2023-04-02T03:34:50;101366.53;;;5.15;100.00
59789;BME280;47353;51.614;5.530;2023-04-02T03:37:17;101371.38;;;5.13;100.00
59789;BME280;47353;51.614;5.530;2023-04-02T03:42:25;101386.59;;;5.09;100.00
59789;BME280;47353;51.614;5.530;2023-04-02T03:44:59;101393.63;;;5.05;100.00
59789;BME280;47353;51.614;5.530;2023-04-02T03:47:40;101398.25;;;5.04;100.00
59789;BME280;47353;51.614;5.530;2023-04-02T03:52:41;101409.09;;;4.99;100.00
59789;BME280;47353;51.614;5.530;2023-04-02T03:55:12;101426.25;;;4.95;100.00
59789;BME280;47353;51.614;5.530;2023-04-02T04:00:16;101427.53;;;4.92;100.00
59789;BME280;47353;51.614;5.530;2023-04-02T04:02:57;101431.50;;;4.96;100.00
59789;BME280;47353;51.614;5.530;2023-04-02T04:05:33;101432.59;;;4.89;100.00
59789;BME280;47353;51.614;5.530;2023-04-02T04:08:04;101440.19;;;4.93;100.00
59789;BME280;47353;51.614;5.530;2023-04-02T04:10:31;101445.28;;;4.90;100.00
59789;BME280;47353;51.614;5.530;2023-04-02T04:13:04;101457.28;;;4.89;100.00
59789;BME280;47353;51.614;5.530;2023-04-02T04:15:48;101459.66;;;4.85;100.00
59789;BME280;47353;51.614;5.530;2023-04-02T04:18:36;101461.16;;;4.81;100.00
59789;BME280;47353;51.614;5.530;2023-04-02T04:21:19;101468.56;;;4.81;100.00
59789;BME280;47353;51.614;5.530;2023-04-02T04:23:54;101476.63;;;4.76;100.00
59789;BME280;47353;51.614;5.530;2023-04-02T04:26:21;101481.25;;;4.75;100.00
59789;BME280;47353;51.614;5.530;2023-04-02T04:29:04;101482.56;;;4.73;100.00
59789;BME280;47353;51.614;5.530;2023-04-02T04:31:48;101487.63;;;4.69;100.00
59789;BME280;47353;51.614;5.530;2023-04-02T04:34:27;101501.13;;;4.71;100.00
59789;BME280;47353;51.614;5.530;2023-04-02T04:37:00;101508.94;;;4.67;100.00
59789;BME280;47353;51.614;5.530;2023-04-02T04:39:40;101518.25;;;4.66;100.00
59789;BME280;47353;51.614;5.530;2023-04-02T04:42:22;101518.69;;;4.63;100.00
59789;BME280;47353;51.614;5.530;2023-04-02T04:45:05;101529.66;;;4.63;100.00
59789;BME280;47353;51.614;5.530;2023-04-02T04:47:46;101525.06;;;4.57;100.00
59789;BME280;47353;51.614;5.530;2023-04-02T04:50:53;101534.91;;;4.65;100.00
59789;BME280;47353;51.614;5.530;2023-04-02T04:53:23;101541.06;;;4.60;100.00
59789;BME280;47353;51.614;5.530;2023-04-02T04:55:56;101552.50;;;4.51;100.00
59789;BME280;47353;51.614;5.530;2023-04-02T04:58:49;101555.28;;;4.44;100.00
59789;BME280;47353;51.614;5.530;2023-04-02T05:01:32;101564.56;;;4.43;100.00
59789;BME280;47353;51.614;5.530;2023-04-02T05:04:03;101560.03;;;4.62;100.00
59789;BME280;47353;51.614;5.530;2023-04-02T05:06:32;101563.34;;;4.39;100.00
59789;BME280;47353;51.614;5.530;2023-04-02T05:09:05;101576.63;;;4.36;100.00
59789;BME280;47353;51.614;5.530;2023-04-02T05:11:46;101574.66;;;4.49;100.00
59789;BME280;47353;51.614;5.530;2023-04-02T05:14:28;101580.22;;;4.36;100.00
59789;BME280;47353;51.614;5.530;2023-04-02T05:17:12;101584.22;;;4.34;100.00
59789;BME280;47353;51.614;5.530;2023-04-02T05:19:50;101584.66;;;4.31;100.00
59789;BME280;47353;51.614;5.530;2023-04-02T05:25:06;101592.44;;;4.34;100.00
59789;BME280;47353;51.614;5.530;2023-04-02T05:27:47;101597.50;;;4.30;100.00
59789;BME280;47353;51.614;5.530;2023-04-02T05:35:25;101609.31;;;4.31;100.00
59789;BME280;47353;51.614;5.530;2023-04-02T05:37:52;101615.66;;;4.31;100.00
59789;BME280;47353;51.614;5.530;2023-04-02T05:40:31;101608.91;;;4.27;100.00
59789;BME280;47353;51.614;5.530;2023-04-02T05:43:00;101620.28;;;4.31;100.00
59789;BME280;47353;51.614;5.530;2023-04-02T05:45:34;101624.72;;;4.32;100.00
59789;BME280;47353;51.614;5.530;2023-04-02T05:48:15;101635.69;;;4.32;100.00
59789;BME280;47353;51.614;5.530;2023-04-02T05:50:44;101651.91;;;4.33;100.00
59789;BME280;47353;51.614;5.530;2023-04-02T05:53:18;101649.19;;;4.33;100.00
59789;BME280;47353;51.614;5.530;2023-04-02T05:58:38;101661.19;;;4.32;100.00
59789;BME280;47353;51.614;5.530;2023-04-02T06:06:51;101686.91;;;4.25;100.00
59789;BME280;47353;51.614;5.530;2023-04-02T06:09:33;101690.94;;;4.22;100.00
59789;BME280;47353;51.614;5.530;2023-04-02T06:12:17;101697.25;;;4.23;100.00
59789;BME280;47353;51.614;5.530;2023-04-02T06:14:44;101704.84;;;4.21;100.00
59789;BME280;47353;51.614;5.530;2023-04-02T06:17:14;101712.88;;;4.22;100.00
59789;BME280;47353;51.614;5.530;2023-04-02T06:19:40;101722.97;;;4.22;100.00
59789;BME280;47353;51.614;5.530;2023-04-02T06:22:17;101722.53;;;4.25;100.00
59789;BME280;47353;51.614;5.530;2023-04-02T06:24:46;101727.16;;;4.24;100.00
59789;BME280;47353;51.614;5.530;2023-04-02T06:27:16;101733.94;;;4.22;100.00
59789;BME280;47353;51.614;5.530;2023-04-02T06:29:44;101742.78;;;4.24;100.00
59789;BME280;47353;51.614;5.530;2023-04-02T06:32:12;101733.94;;;4.22;100.00
59789;BME280;47353;51.614;5.530;2023-04-02T06:34:39;101747.84;;;4.20;100.00
59789;BME280;47353;51.614;5.530;2023-04-02T06:39:49;101758.81;;;4.20;100.00
59789;BME280;47353;51.614;5.530;2023-04-02T06:42:44;101767.41;;;4.30;100.00
59789;BME280;47353;51.614;5.530;2023-04-02T06:45:21;101769.34;;;4.23;99.97
59789;BME280;47353;51.614;5.530;2023-04-02T06:47:49;101781.53;;;4.27;99.21
59789;BME280;47353;51.614;5.530;2023-04-02T06:50:21;101777.97;;;4.27;98.67
59789;BME280;47353;51.614;5.530;2023-04-02T06:52:51;101786.59;;;4.30;99.38
59789;BME280;47353;51.614;5.530;2023-04-02T06:55:31;101789.56;;;4.29;98.24
59789;BME280;47353;51.614;5.530;2023-04-02T06:57:57;101802.66;;;4.27;97.54
59789;BME280;47353;51.614;5.530;2023-04-02T07:00:41;101811.69;;;4.27;97.42
59789;BME280;47353;51.614;5.530;2023-04-02T07:03:14;101818.88;;;4.28;97.21
59789;BME280;47353;51.614;5.530;2023-04-02T07:05:41;101830.25;;;4.12;96.65
59789;BME280;47353;51.614;5.530;2023-04-02T07:08:06;101837.63;;;4.18;96.09
59789;BME280;47353;51.614;5.530;2023-04-02T07:10:32;101838.47;;;4.12;96.24
59789;BME280;47353;51.614;5.530;2023-04-02T07:12:58;101850.28;;;4.13;95.44
59789;BME280;47353;51.614;5.530;2023-04-02T07:15:27;101858.06;;;4.09;95.41
59789;BME280;47353;51.614;5.530;2023-04-02T07:17:52;101855.75;;;4.06;95.94
59789;BME280;47353;51.614;5.530;2023-04-02T07:20:33;101866.94;;;4.18;95.31
59789;BME280;47353;51.614;5.530;2023-04-02T07:23:02;101872.63;;;4.16;95.06
59789;BME280;47353;51.614;5.530;2023-04-02T07:25:27;101872.63;;;4.16;93.84
59789;BME280;47353;51.614;5.530;2023-04-02T07:27:53;101877.25;;;4.16;94.77
59789;BME280;47353;51.614;5.530;2023-04-02T07:30:19;101886.31;;;4.23;93.72
59789;BME280;47353;51.614;5.530;2023-04-02T07:32:44;101890.34;;;4.27;92.95
59789;BME280;47353;51.614;5.530;2023-04-02T07:35:10;101898.34;;;4.35;93.58
59789;BME280;47353;51.614;5.530;2023-04-02T07:37:36;101891.81;;;4.36;93.11
59789;BME280;47353;51.614;5.530;2023-04-02T07:40:07;101893.91;;;4.47;93.63
59789;BME280;47353;51.614;5.530;2023-04-02T07:42:39;101898.97;;;4.50;91.97
59789;BME280;47353;51.614;5.530;2023-04-02T07:45:05;101900.44;;;4.52;93.31
59789;BME280;47353;51.614;5.530;2023-04-02T07:47:31;101896.66;;;4.53;92.50
59789;BME280;47353;51.614;5.530;2023-04-02T07:49:56;101908.25;;;4.55;92.93
59789;BME280;47353;51.614;5.530;2023-04-02T07:52:21;101915.81;;;4.60;91.72
59789;BME280;47353;51.614;5.530;2023-04-02T07:54:47;101932.72;;;4.63;90.82
59789;BME280;47353;51.614;5.530;2023-04-02T07:57:12;101931.03;;;4.62;90.66
59789;BME280;47353;51.614;5.530;2023-04-02T07:59:38;101931.22;;;4.67;91.33
59789;BME280;47353;51.614;5.530;2023-04-02T08:02:03;101921.97;;;4.75;91.66
59789;BME280;47353;51.614;5.530;2023-04-02T08:04:29;101918.78;;;4.71;90.08
59789;BME280;47353;51.614;5.530;2023-04-02T08:06:55;101938.59;;;4.86;90.43
59789;BME280;47353;51.614;5.530;2023-04-02T08:09:20;101939.22;;;4.95;91.14
59789;BME280;47353;51.614;5.530;2023-04-02T08:11:46;101938.81;;;4.98;91.11
59789;BME280;47353;51.614;5.530;2023-04-02T08:14:11;101952.69;;;5.03;91.07
59789;BME280;47353;51.614;5.530;2023-04-02T08:19:10;101968.94;;;5.24;91.70
59789;BME280;47353;51.614;5.530;2023-04-02T08:21:35;101967.66;;;5.20;88.63
59789;BME280;47353;51.614;5.530;2023-04-02T08:24:00;101967.44;;;5.22;89.79
59789;BME280;47353;51.614;5.530;2023-04-02T08:26:26;101974.00;;;5.27;89.61
59789;BME280;47353;51.614;5.530;2023-04-02T08:28:51;101975.88;;;5.33;89.33
59789;BME280;47353;51.614;5.530;2023-04-02T08:31:16;101983.88;;;5.35;89.15
59789;BME280;47353;51.614;5.530;2023-04-02T08:33:42;101993.59;;;5.31;88.29
59789;BME280;47353;51.614;5.530;2023-04-02T08:36:15;101995.72;;;5.35;88.13
59789;BME280;47353;51.614;5.530;2023-04-02T08:38:41;102003.53;;;5.32;87.16
59789;BME280;47353;51.614;5.530;2023-04-02T08:41:07;102010.28;;;5.29;86.70
59789;BME280;47353;51.614;5.530;2023-04-02T08:49:00;102021.69;;;5.33;87.59
59789;BME280;47353;51.614;5.530;2023-04-02T08:51:29;102027.97;;;5.46;87.21
59789;BME280;47353;51.614;5.530;2023-04-02T08:54:02;102035.56;;;5.51;87.44
59789;BME280;47353;51.614;5.530;2023-04-02T08:56:36;102040.84;;;5.52;86.38
59789;BME280;47353;51.614;5.530;2023-04-02T09:04:23;102052.91;;;5.45;83.79
59789;BME280;47353;51.614;5.530;2023-04-02T09:06:54;102077.66;;;5.38;84.11
59789;BME280;47353;51.614;5.530;2023-04-02T09:09:21;102070.25;;;5.32;83.79
59789;BME280;47353;51.614;5.530;2023-04-02T09:11:55;102074.06;;;5.25;84.57
59789;BME280;47353;51.614;5.530;2023-04-02T09:17:22;102082.72;;;5.22;83.79
59789;BME280;47353;51.614;5.530;2023-04-02T09:19:55;102089.06;;;5.29;84.09
59789;BME280;47353;51.614;5.530;2023-04-02T09:22:26;102092.63;;;5.29;84.94
59789;BME280;47353;51.614;5.530;2023-04-02T09:24:54;102104.47;;;5.30;85.19
59789;BME280;47353;51.614;5.530;2023-04-02T09:27:22;102101.50;;;5.25;84.86
59789;BME280;47353;51.614;5.530;2023-04-02T09:29:52;102106.56;;;5.28;85.08
59789;BME280;47353;51.614;5.530;2023-04-02T09:35:15;102112.91;;;5.22;85.32
59789;BME280;47353;51.614;5.530;2023-04-02T09:37:42;102109.13;;;5.16;85.46
59789;BME280;47353;51.614;5.530;2023-04-02T09:40:25;102127.03;;;5.12;85.17
59789;BME280;47353;51.614;5.530;2023-04-02T09:43:24;102134.47;;;5.18;87.25
59789;BME280;47353;51.614;5.530;2023-04-02T09:45:59;102132.75;;;5.24;87.15
59789;BME280;47353;51.614;5.530;2023-04-02T09:48:28;102142.69;;;5.31;87.35
59789;BME280;47353;51.614;5.530;2023-04-02T09:51:11;102147.31;;;5.37;85.91
59789;BME280;47353;51.614;5.530;2023-04-02T09:53:45;102147.13;;;5.39;85.39
59789;BME280;47353;51.614;5.530;2023-04-02T09:56:19;102146.69;;;5.48;85.48
59789;BME280;47353;51.614;5.530;2023-04-02T10:04:36;102171.00;;;5.84;84.59
59789;BME280;47353;51.614;5.530;2023-04-02T10:07:38;102175.84;;;5.82;84.41
59789;BME280;47353;51.614;5.530;2023-04-02T10:10:18;102175.84;;;5.82;84.52
59789;BME280;47353;51.614;5.530;2023-04-02T10:13:08;102175.00;;;5.88;84.71
59789;BME280;47353;51.614;5.530;2023-04-02T10:18:53;102179.84;;;5.92;83.76
59789;BME280;47353;51.614;5.530;2023-04-02T10:21:32;102190.81;;;5.99;83.87
59789;BME280;47353;51.614;5.530;2023-04-02T10:24:00;102194.22;;;6.07;82.66
59789;BME280;47353;51.614;5.530;2023-04-02T10:35:00;102191.53;;;6.45;81.00
59789;BME280;47353;51.614;5.530;2023-04-02T10:37:48;102198.91;;;6.57;80.18
59789;BME280;47353;51.614;5.530;2023-04-02T10:43:32;102205.22;;;7.09;77.45
59789;BME280;47353;51.614;5.530;2023-04-02T10:49:04;102207.72;;;7.72;75.52
59789;BME280;47353;51.614;5.530;2023-04-02T10:51:44;102222.66;;;8.07;74.64
59789;BME280;47353;51.614;5.530;2023-04-02T10:56:46;102227.50;;;8.12;72.32
59789;BME280;47353;51.614;5.530;2023-04-02T10:59:21;102225.19;;;8.33;72.86
59789;BME280;47353;51.614;5.530;2023-04-02T11:01:49;102227.19;;;8.20;70.33
59789;BME280;47353;51.614;5.530;2023-04-02T11:04:24;102224.41;;;8.02;70.63
59789;BME280;47353;51.614;5.530;2023-04-02T11:06:56;102224.63;;;8.00;68.61
59789;BME280;47353;51.614;5.530;2023-04-02T11:09:24;102229.84;;;8.33;68.69
59789;BME280;47353;51.614;5.530;2023-04-02T11:11:55;102234.06;;;8.72;69.30
59789;BME280;47353;51.614;5.530;2023-04-02T11:14:26;102236.75;;;9.26;69.14
59789;BME280;47353;51.614;5.530;2023-04-02T11:16:53;102241.09;;;9.86;67.98
59789;BME280;47353;51.614;5.530;2023-04-02T11:19:22;102249.84;;;10.13;63.94
59789;BME280;47353;51.614;5.530;2023-04-02T11:21:58;102250.81;;;10.30;63.80
59789;BME280;47353;51.614;5.530;2023-04-02T11:32:32;102278.22;;;9.08;63.95
59789;BME280;47353;51.614;5.530;2023-04-02T11:35:02;102283.38;;;8.86;65.68
59789;BME280;47353;51.614;5.530;2023-04-02T11:40:00;102277.66;;;8.99;65.29
59789;BME280;47353;51.614;5.530;2023-04-02T11:42:27;102282.56;;;9.15;66.05
59789;BME280;47353;51.614;5.530;2023-04-02T11:44:54;102298.66;;;9.36;65.57
59789;BME280;47353;51.614;5.530;2023-04-02T11:47:25;102292.38;;;9.59;65.58
59789;BME280;47353;51.614;5.530;2023-04-02T11:49:55;102311.47;;;9.90;64.55
59789;BME280;47353;51.614;5.530;2023-04-02T11:52:26;102307.69;;;9.73;62.71
59789;BME280;47353;51.614;5.530;2023-04-02T11:54:59;102310.09;;;9.69;63.42
59789;BME280;47353;51.614;5.530;2023-04-02T11:57:28;102306.66;;;9.26;62.52
59789;BME280;47353;51.614;5.530;2023-04-02T12:03:10;102317.06;;;9.42;63.89
59789;BME280;47353;51.614;5.530;2023-04-02T12:06:04;102319.09;;;9.65;64.46
59789;BME280;47353;51.614;5.530;2023-04-02T12:11:36;102331.09;;;9.41;65.17
59789;BME280;47353;51.614;5.530;2023-04-02T12:17:33;102355.91;;;8.75;65.39
59789;BME280;47353;51.614;5.530;2023-04-02T12:20:02;102353.81;;;8.53;65.11
59789;BME280;47353;51.614;5.530;2023-04-02T12:22:34;102358.09;;;8.48;64.75
59789;BME280;47353;51.614;5.530;2023-04-02T12:25:05;102366.56;;;8.72;65.13
59789;BME280;47353;51.614;5.530;2023-04-02T12:27:31;102362.50;;;9.46;62.94
59789;BME280;47353;51.614;5.530;2023-04-02T12:30:21;102360.72;;;11.77;58.87
59789;BME280;47353;51.614;5.530;2023-04-02T12:32:47;102363.00;;;14.04;49.31
59789;BME280;47353;51.614;5.530;2023-04-02T12:35:33;102361.50;;;16.10;47.69
59789;BME280;47353;51.614;5.530;2023-04-02T12:37:59;102368.50;;;18.30;40.13
59789;BME280;47353;51.614;5.530;2023-04-02T12:40:25;102367.09;;;19.70;34.86
59789;BME280;47353;51.614;5.530;2023-04-02T12:42:51;102360.59;;;20.49;34.36
59789;BME280;47353;51.614;5.530;2023-04-02T12:45:23;102362.88;;;20.79;34.53
59789;BME280;47353;51.614;5.530;2023-04-02T12:47:49;102350.47;;;21.12;32.56
59789;BME280;47353;51.614;5.530;2023-04-02T12:50:15;102352.47;;;20.80;31.96
59789;BME280;47353;51.614;5.530;2023-04-02T12:52:45;102359.16;;;21.29;30.76
59789;BME280;47353;51.614;5.530;2023-04-02T12:55:18;102356.31;;;21.16;30.50
59789;BME280;47353;51.614;5.530;2023-04-02T12:57:44;102366.78;;;20.14;29.81
59789;BME280;47353;51.614;5.530;2023-04-02T13:02:47;102364.09;;;17.70;36.08
59789;BME280;47353;51.614;5.530;2023-04-02T13:05:37;102368.00;;;16.81;37.05
59789;BME280;47353;51.614;5.530;2023-04-02T13:08:12;102359.25;;;15.25;37.36
59789;BME280;47353;51.614;5.530;2023-04-02T13:10:39;102367.06;;;15.28;39.41
59789;BME280;47353;51.614;5.530;2023-04-02T13:13:04;102364.47;;;15.68;41.48
59789;BME280;47353;51.614;5.530;2023-04-02T13:15:32;102373.28;;;15.40;39.84
59789;BME280;47353;51.614;5.530;2023-04-02T13:20:37;102355.88;;;17.20;38.22
59789;BME280;47353;51.614;5.530;2023-04-02T13:23:29;102374.53;;;17.55;37.29
59789;BME280;47353;51.614;5.530;2023-04-02T13:25:57;102366.75;;;18.73;34.41
59789;BME280;47353;51.614;5.530;2023-04-02T13:28:23;102368.47;;;19.49;32.03
59789;BME280;47353;51.614;5.530;2023-04-02T13:30:48;102360.59;;;21.27;31.28
59789;BME280;47353;51.614;5.530;2023-04-02T13:33:14;102367.19;;;20.90;30.58
59789;BME280;47353;51.614;5.530;2023-04-02T13:35:41;102364.25;;;21.68;27.89
59789;BME280;47353;51.614;5.530;2023-04-02T13:38:07;102364.44;;;21.58;28.39
59789;BME280;47353;51.614;5.530;2023-04-02T13:40:34;102377.19;;;19.48;29.56
59789;BME280;47353;51.614;5.530;2023-04-02T13:43:02;102375.94;;;20.01;28.68
59789;BME280;47353;51.614;5.530;2023-04-02T13:45:33;102364.34;;;21.36;30.46
59789;BME280;47353;51.614;5.530;2023-04-02T13:48:00;102369.41;;;22.51;28.15
59789;BME280;47353;51.614;5.530;2023-04-02T13:50:29;102366.72;;;22.68;26.97
59789;BME280;47353;51.614;5.530;2023-04-02T13:52:57;102363.13;;;23.76;25.53
59789;BME280;47353;51.614;5.530;2023-04-02T13:55:25;102371.72;;;23.24;24.60
59789;BME280;47353;51.614;5.530;2023-04-02T13:57:52;102361.63;;;23.00;24.91
59789;BME280;47353;51.614;5.530;2023-04-02T14:00:18;102375.50;;;22.88;24.97
59789;BME280;47353;51.614;5.530;2023-04-02T14:02:48;102383.66;;;22.90;25.74
59789;BME280;47353;51.614;5.530;2023-04-02T14:05:32;102380.63;;;22.64;25.81
59789;BME280;47353;51.614;5.530;2023-04-02T14:08:19;102380.47;;;22.47;24.37
59789;BME280;47353;51.614;5.530;2023-04-02T14:11:14;102368.91;;;23.01;26.89
59789;BME280;47353;51.614;5.530;2023-04-02T14:19:52;102387.66;;;23.98;23.38
59789;BME280;47353;51.614;5.530;2023-04-02T14:30:36;102396.19;;;24.15;25.48
59789;BME280;47353;51.614;5.530;2023-04-02T14:35:51;102393.72;;;23.35;24.91
59789;BME280;47353;51.614;5.530;2023-04-02T14:42:51;102406.00;;;24.34;24.43
59789;BME280;47353;51.614;5.530;2023-04-02T14:44:59;102407.38;;;23.81;25.21
59789;BME280;47353;51.614;5.530;2023-04-02T14:47:37;102404.81;;;24.10;23.83
59789;BME280;47353;51.614;5.530;2023-04-02T14:50:11;102410.19;;;24.45;24.57
59789;BME280;47353;51.614;5.530;2023-04-02T14:52:41;102410.69;;;24.39;23.24
59789;BME280;47353;51.614;5.530;2023-04-02T14:55:25;102409.19;;;24.50;23.48
59789;BME280;47353;51.614;5.530;2023-04-02T14:57:52;102414.03;;;24.41;22.48
59789;BME280;47353;51.614;5.530;2023-04-02T15:02:48;102418.84;;;24.40;23.92
59789;BME280;47353;51.614;5.530;2023-04-02T15:05:25;102415.34;;;24.60;23.87
59789;BME280;47353;51.614;5.530;2023-04-02T15:07:59;102426.50;;;24.57;23.27
59789;BME280;47353;51.614;5.530;2023-04-02T15:10:29;102429.03;;;24.76;21.81
59789;BME280;47353;51.614;5.530;2023-04-02T15:12:57;102426.00;;;24.55;21.57
59789;BME280;47353;51.614;5.530;2023-04-02T15:15:36;102427.84;;;24.59;22.88
59789;BME280;47353;51.614;5.530;2023-04-02T15:18:08;102426.97;;;24.25;24.04
59789;BME280;47353;51.614;5.530;2023-04-02T15:20:47;102425.63;;;23.27;25.00
59789;BME280;47353;51.614;5.530;2023-04-02T15:23:20;102421.75;;;21.54;25.67
59789;BME280;47353;51.614;5.530;2023-04-02T15:26:19;102422.41;;;20.54;27.30
59789;BME280;47353;51.614;5.530;2023-04-02T15:28:55;102419.03;;;19.49;28.89
59789;BME280;47353;51.614;5.530;2023-04-02T15:31:26;102428.66;;;19.67;27.56
59789;BME280;47353;51.614;5.530;2023-04-02T15:34:17;102427.75;;;20.56;26.97
59789;BME280;47353;51.614;5.530;2023-04-02T15:41:56;102426.25;;;22.58;25.49
59789;BME280;47353;51.614;5.530;2023-04-02T15:44:26;102434.78;;;22.66;24.61
59789;BME280;47353;51.614;5.530;2023-04-02T15:52:11;102441.84;;;21.79;25.39
59789;BME280;47353;51.614;5.530;2023-04-02T15:55:01;102432.47;;;21.38;24.95
59789;BME280;47353;51.614;5.530;2023-04-02T16:00:45;102443.56;;;20.84;27.34
59789;BME280;47353;51.614;5.530;2023-04-02T16:11:37;102442.16;;;20.68;25.93
59789;BME280;47353;51.614;5.530;2023-04-02T16:14:23;102441.53;;;20.89;27.25
59789;BME280;47353;51.614;5.530;2023-04-02T16:16:50;102460.63;;;20.92;26.07
59789;BME280;47353;51.614;5.530;2023-04-02T16:19:31;102452.66;;;20.62;26.77
59789;BME280;47353;51.614;5.530;2023-04-02T16:22:10;102460.88;;;20.77;27.06
59789;BME280;47353;51.614;5.530;2023-04-02T16:24:38;102466.59;;;19.88;27.20
59789;BME280;47353;51.614;5.530;2023-04-02T16:27:40;102475.03;;;19.41;28.94
59789;BME280;47353;51.614;5.530;2023-04-02T16:33:38;102473.94;;;19.03;29.66
59789;BME280;47353;51.614;5.530;2023-04-02T16:39:17;102486.41;;;16.14;32.19